Data for 04/23/2007

Time Sea-Level Adjusted Pressure Absolute Pressure Temperature Relative Humidity Dew Point   
(mb) (inHg) (mb) (inHg) (C) (F) (%) (C) (F)
00:05 1014 29.94 843 24.89 6.1 43.1 89 4.5 40.2
00:10 1014 29.94 843 24.89 6.2 43.1 89 4.5 40
00:15 1014 29.94 843 24.89 6.1 43 89 4.4 39.9
00:20 1014 29.94 843 24.89 6.2 43.2 88 4.4 40
00:25 1014 29.94 843 24.89 6.3 43.4 88 4.6 40.2
00:30 1014 29.94 843 24.89 6.3 43.3 88 4.4 39.8
00:35 1014 29.94 843 24.89 6.2 43.1 89 4.5 40
00:40 1014 29.94 843 24.89 6.4 43.5 86 4.2 39.6
00:45 1014 29.94 843 24.89 6.5 43.6 86 4.3 39.7
00:50 1014 29.94 843 24.89 6.6 43.8 84 4.1 39.4
00:55 1014 29.94 843 24.89 6.3 43.3 86 4.1 39.4
01:00 1014 29.94 843 24.89 6.1 43.1 87 4.1 39.4
01:05 1014 29.94 843 24.89 6.1 42.9 87 4 39.3
01:10 1014 29.94 843 24.89 6.1 43 87 4.1 39.4
01:15 1014 29.94 843 24.89 6 42.9 87 4 39.3
01:20 1014 29.94 843 24.89 6 42.8 86 3.9 39
01:25 1014 29.94 843 24.89 5.9 42.6 87 3.8 38.9
01:30 1014 29.94 843 24.89 6 42.8 84 3.5 38.3
01:35 1014 29.94 843 24.89 6.2 43.2 81 3.2 37.8
01:40 1014 29.94 843 24.89 6.4 43.5 78 2.8 37.1
01:45 1014 29.94 843 24.89 6.5 43.8 80 3.3 38
01:50 1014 29.94 843 24.89 6.5 43.7 78 2.9 37.3
01:55 1014 29.94 843 24.89 6.6 43.9 77 2.9 37.3
02:00 1014 29.94 843 24.89 6.6 43.8 78 3 37.4
02:05 1014 29.94 843 24.89 6.6 43.9 78 3 37.4
02:10 1014 29.94 843 24.89 6.6 43.9 77 3 37.3
02:15 1014 29.94 843 24.89 6.6 43.9 77 2.8 37.1
02:20 1014 29.94 843 24.89 6.6 43.9 78 3 37.4
02:25 1014 29.94 843 24.89 6.6 43.8 79 3.2 37.8
02:30 1014 29.94 843 24.89 6.5 43.7 79 3.1 37.5
02:35 1014 29.94 843 24.89 6.6 43.8 79 3.1 37.6
02:40 1014 29.94 843 24.89 6.5 43.8 80 3.4 38.1
02:45 1014 29.94 843 24.89 6.5 43.7 83 3.8 38.8
02:50 1014 29.94 843 24.89 6.3 43.4 85 3.9 39
02:55 1014 29.94 843 24.89 6.4 43.6 83 3.8 38.8
03:00 1014 29.94 843 24.89 6.5 43.6 84 3.9 39
03:05 1014 29.94 843 24.89 6.4 43.6 82 3.6 38.5
03:10 1014 29.94 843 24.89 6.5 43.7 80 3.2 37.8
03:15 1014 29.94 843 24.89 6.6 43.8 80 3.3 37.9
03:20 1014 29.94 843 24.89 6.7 44.1 80 3.5 38.3
03:25 1014 29.94 843 24.89 6.6 43.9 79 3.2 37.8
03:30 1014 29.94 843 24.89 6.5 43.7 80 3.3 38
03:35 1014 29.94 843 24.89 6.7 44 81 3.7 38.6
03:40 1014 29.94 843 24.89 6.9 44.4 82 4 39.1
03:45 1014 29.94 843 24.89 6.9 44.3 83 4.1 39.4
03:50 1014 29.94 843 24.89 6.9 44.3 83 4.1 39.5
03:55 1014 29.94 843 24.89 6.8 44.3 83 4.2 39.5
04:00 1014 29.94 843 24.89 6.8 44.3 83 4.1 39.5
04:05 1014 29.94 843 24.89 6.8 44.2 84 4.2 39.6
04:10 1014 29.94 843 24.89 6.9 44.3 83 4.3 39.7
04:15 1014 29.94 843 24.89 6.7 44.1 84 4.2 39.6
04:20 1014 29.94 843 24.89 6.7 44 84 4.2 39.5
04:25 1014 29.94 843 24.89 6.7 44 84 4.2 39.6
04:30 1014 29.94 843 24.89 6.8 44.2 84 4.2 39.6
04:35 1014 29.94 843 24.89 6.7 44.1 84 4.3 39.7
04:40 1014 29.94 843 24.89 6.6 43.9 82 3.7 38.7
04:45 1014 29.94 843 24.89 6.6 43.9 83 3.9 38.9
04:50 1014 29.94 843 24.89 6.5 43.8 83 3.8 38.8
04:55 1014 29.94 843 24.89 6.4 43.6 81 3.4 38.1
05:00 1014 29.94 843 24.89 6.3 43.3 82 3.4 38.1
05:05 1014 29.94 843 24.89 6.2 43.1 83 3.5 38.2
05:10 1014 29.94 843 24.89 6.1 43.1 83 3.4 38.1
05:15 1014 29.94 843 24.89 6.1 42.9 82 3.3 37.9
05:20 1014 29.94 844 24.92 6 42.9 83 3.4 38
05:25 1014 29.94 844 24.92 6.1 43 82 3.3 38
05:30 1014 29.94 844 24.92 6.1 42.9 83 3.4 38.1
05:35 1014 29.94 844 24.92 6 42.8 83 3.4 38.2
05:40 1014 29.94 844 24.92 6 42.8 84 3.4 38.1
05:45 1014 29.94 844 24.92 6 42.7 82 3.1 37.6
05:50 1014 29.94 844 24.92 6 42.8 82 3.2 37.8
05:55 1014 29.94 844 24.92 6.1 43 82 3.2 37.7
06:00 1014 29.94 844 24.92 6.1 43 81 3 37.4
06:05 1015 29.97 844 24.92 6.2 43.1 81 3.2 37.8
06:10 1015 29.97 844 24.92 6.2 43.2 81 3.3 37.9
06:15 1015 29.97 844 24.92 6.1 43 81 3 37.4
06:20 1015 29.97 844 24.92 6.1 42.9 81 3 37.4
06:25 1015 29.97 844 24.92 6.2 43.1 81 3.1 37.6
06:30 1015 29.97 844 24.92 6.2 43.1 81 3.2 37.8
06:35 1015 29.97 844 24.92 6.3 43.3 81 3.2 37.8
06:40 1015 29.97 844 24.92 6.2 43.2 82 3.4 38.1
06:45 1015 29.97 844 24.92 6.2 43.1 83 3.5 38.3
06:50 1015 29.97 844 24.92 6.2 43.2 84 3.7 38.7
06:55 1015 29.97 844 24.92 6.3 43.3 84 3.8 38.9
07:00 1015 29.97 844 24.92 6.1 43.1 86 4 39.2
07:05 1015 29.97 844 24.92 6.3 43.3 86 4.1 39.4
07:10 1015 29.97 844 24.92 6.5 43.8 86 4.3 39.8
07:15 1015 29.97 844 24.92 6.5 43.7 86 4.4 39.9
07:20 1015 29.97 844 24.92 6.5 43.7 86 4.3 39.7
07:25 1015 29.97 844 24.92 6.5 43.7 86 4.3 39.8
07:30 1015 29.97 844 24.92 6.5 43.7 86 4.4 39.9
07:35 1015 29.97 845 24.95 6.5 43.7 86 4.3 39.8
07:40 1015 29.97 845 24.95 6.5 43.7 86 4.4 39.9
07:45 1015 29.97 845 24.95 6.5 43.7 86 4.3 39.7
07:50 1015 29.97 845 24.95 6.6 43.8 86 4.4 39.9
07:55 1015 29.97 845 24.95 6.4 43.6 87 4.5 40.1
08:00 1015 29.97 845 24.95 6.4 43.6 88 4.5 40.2
08:05 1015 29.97 845 24.95 6.4 43.5 87 4.4 39.8
08:10 1016 30 845 24.95 6.5 43.7 86 4.3 39.8
08:15 1016 30 845 24.95 6.5 43.7 87 4.4 40
08:20 1016 30 845 24.95 6.5 43.6 86 4.3 39.7
08:25 1016 30 845 24.95 6.5 43.6 86 4.3 39.7
08:30 1016 30 845 24.95 6.4 43.6 86 4.2 39.6
08:35 1016 30 845 24.95 6.5 43.7 87 4.4 40
08:40 1016 30 845 24.95 6.5 43.6 87 4.5 40.1
08:45 1016 30 845 24.95 6.4 43.5 87 4.5 40.1
08:50 1016 30 845 24.95 6.4 43.5 87 4.3 39.8
08:55 1016 30 845 24.95 6.1 43 89 4.4 39.9
09:00 1016 30 845 24.95 6.4 43.5 85 4.1 39.4
09:05 1016 30 845 24.95 6.2 43.1 86 4.1 39.3
09:10 1016 30 845 24.95 6 42.9 86 3.9 39.1
09:15 1016 30 845 24.95 5.9 42.7 87 3.9 39
09:20 1016 30 845 24.95 6 42.8 86 3.9 39
09:25 1016 30 845 24.95 6.1 43 88 4.2 39.5
09:30 1016 30 845 24.95 6.3 43.3 87 4.2 39.6
09:35 1016 30 845 24.95 6.4 43.6 87 4.4 39.9
09:40 1016 30 845 24.95 6.4 43.6 84 4 39.2
09:45 1016 30 845 24.95 6.3 43.3 84 3.8 38.9
09:50 1016 30 845 24.95 6.3 43.3 82 3.5 38.3
09:55 1016 30 846 24.98 6.3 43.3 84 3.8 38.8
10:00 1016 30 846 24.98 6.4 43.5 82 3.6 38.4
10:05 1016 30 846 24.98 6.5 43.6 82 3.6 38.4
10:10 1016 30 846 24.98 6.4 43.4 81 3.4 38.1
10:15 1016 30 846 24.98 6.3 43.3 82 3.5 38.2
10:20 1016 30 846 24.98 6.2 43.2 83 3.5 38.3
10:25 1016 30 846 24.98 6.3 43.3 83 3.6 38.5
10:30 1017 30.03 846 24.98 6.4 43.4 83 3.7 38.7
10:35 1017 30.03 846 24.98 6.4 43.5 80 3.2 37.8
10:40 1017 30.03 846 24.98 6.4 43.5 82 3.5 38.3
10:45 1017 30.03 846 24.98 6.4 43.5 80 3.1 37.6
10:50 1017 30.03 846 24.98 6.4 43.4 79 3 37.4
10:55 1017 30.03 846 24.98 6.4 43.6 78 3 37.3
11:00 1017 30.03 846 24.98 6.5 43.7 77 2.8 37
11:05 1017 30.03 846 24.98 6.5 43.6 79 3.1 37.6
11:10 1017 30.03 846 24.98 6.6 43.8 78 3.1 37.6
11:15 1017 30.03 846 24.98 6.5 43.6 79 3 37.4
11:20 1017 30.03 846 24.98 6.4 43.5 81 3.4 38.1
11:25 1017 30.03 846 24.98 6.5 43.7 81 3.6 38.4
11:30 1017 30.03 846 24.98 6.7 44.1 82 3.9 39.1
11:35 1017 30.03 846 24.98 7 44.6 80 3.9 38.9
11:40 1017 30.03 846 24.98 6.7 44 83 3.9 39.1
11:45 1017 30.03 846 24.98 6.5 43.8 81 3.5 38.2
11:50 1017 30.03 846 24.98 6.4 43.6 83 3.8 38.8
11:55 1017 30.03 846 24.98 6.4 43.5 84 3.9 39
12:00 1017 30.03 846 24.98 6.4 43.6 81 3.4 38.2
12:05 1017 30.03 846 24.98 6.5 43.7 81 3.5 38.2
12:10 1017 30.03 846 24.98 6.6 44 81 3.7 38.6
12:15 1017 30.03 846 24.98 6.5 43.7 82 3.6 38.5
12:20 1017 30.03 846 24.98 6.3 43.4 82 3.5 38.3
12:25 1017 30.03 846 24.98 6.2 43.2 82 3.4 38
12:30 1017 30.03 846 24.98 6 42.8 85 3.6 38.5
12:35 1017 30.03 846 24.98 5.8 42.4 84 3.2 37.8
12:40 1017 30.03 846 24.98 5.9 42.6 82 3.1 37.6
12:45 1017 30.03 847 25.01 5.8 42.4 83 3.1 37.6
12:50 1017 30.03 847 25.01 5.7 42.2 84 3.2 37.7
12:55 1017 30.03 847 25.01 5.4 41.8 83 2.7 36.9
13:00 1017 30.03 847 25.01 5.1 41.2 84 2.6 36.7
13:05 1017 30.03 847 25.01 5.1 41.1 86 2.9 37.3
13:10 1017 30.03 847 25.01 5.1 41.1 84 2.6 36.6
13:15 1017 30.03 847 25.01 5 41.1 85 2.8 37
13:20 1018 30.06 847 25.01 5.2 41.4 86 3.1 37.6
13:25 1018 30.06 847 25.01 5.4 41.7 83 2.7 36.8
13:30 1018 30.06 847 25.01 5.4 41.8 83 2.8 37
13:35 1018 30.06 847 25.01 5.4 41.7 83 2.7 36.8
13:40 1018 30.06 847 25.01 5.4 41.6 83 2.6 36.7
13:45 1018 30.06 847 25.01 5.5 41.8 84 3 37.5
13:50 1018 30.06 847 25.01 5.7 42.3 84 3.3 37.9
13:55 1018 30.06 847 25.01 6.2 43.1 83 3.5 38.3
14:00 1018 30.06 847 25.01 6.3 43.3 79 3 37.4
14:05 1018 30.06 847 25.01 6.2 43.2 80 3.1 37.5
14:10 1018 30.06 847 25.01 6.4 43.6 80 3.2 37.7
14:15 1018 30.06 847 25.01 6.2 43.2 81 3.2 37.8
14:20 1018 30.06 847 25.01 6.3 43.3 79 2.9 37.1
14:25 1018 30.06 847 25.01 6.2 43.2 81 3.1 37.7
14:30 1018 30.06 847 25.01 6.3 43.3 80 3.1 37.7
14:35 1018 30.06 847 25.01 6.4 43.5 81 3.4 38.1
14:40 1018 30.06 847 25.01 6.5 43.8 78 3 37.4
14:45 1018 30.06 847 25.01 6.6 43.8 75 2.5 36.5
14:50 1018 30.06 847 25.01 6.8 44.3 78 3.2 37.7
14:55 1018 30.06 847 25.01 7.1 44.8 76 3.2 37.8
15:00 1018 30.06 847 25.01 7.1 44.7 75 3 37.5
15:05 1018 30.06 847 25.01 7 44.6 74 2.6 36.7
15:10 1018 30.06 847 25.01 7.2 45 73 2.7 36.9
15:15 1018 30.06 847 25.01 7.7 45.9 70 2.6 36.7
15:20 1018 30.06 847 25.01 7.9 46.1 72 3 37.5
15:25 1018 30.06 847 25.01 7.9 46.2 70 2.8 37.1
15:30 1018 30.06 847 25.01 8.4 47.2 70 3.4 38.1
15:35 1018 30.06 847 25.01 8.9 48 66 2.9 37.2
15:40 1018 30.06 847 25.01 8.5 47.3 67 2.8 37
15:45 1018 30.06 847 25.01 8.5 47.3 69 3.1 37.6
15:50 1018 30.06 847 25.01 8.6 47.6 68 3.2 37.7
15:55 1018 30.06 847 25.01 8.7 47.7 67 2.9 37.2
16:00 1018 30.06 847 25.01 8.9 47.9 67 3 37.5
16:05 1018 30.06 847 25.01 8.7 47.6 69 3.3 37.9
16:10 1018 30.06 847 25.01 8.7 47.6 67 2.8 37.1
16:15 1018 30.06 847 25.01 8.4 47.1 68 2.8 37.1
16:20 1018 30.06 847 25.01 8.5 47.3 67 2.8 37.1
16:25 1018 30.06 847 25.01 8.5 47.2 68 3 37.5
16:30 1018 30.06 847 25.01 8.8 47.8 68 3.2 37.8
16:35 1018 30.06 847 25.01 8.8 47.8 68 3.3 38
16:40 1018 30.06 847 25.01 8.7 47.7 69 3.3 38
16:45 1018 30.06 847 25.01 8.5 47.3 73 3.9 39
16:50 1018 30.06 847 25.01 8.2 46.8 74 4 39.1
16:55 1018 30.06 847 25.01 8.1 46.5 77 4.3 39.7
17:00 1018 30.06 847 25.01 8 46.5 77 4.3 39.7
17:05 1018 30.06 847 25.01 8.2 46.7 77 4.4 39.9
17:10 1018 30.06 847 25.01 8.4 47.1 74 4 39.2
17:15 1018 30.06 847 25.01 8.3 46.9 75 4.1 39.4
17:20 1018 30.06 847 25.01 8.3 47 74 4 39.2
17:25 1018 30.06 847 25.01 8.6 47.4 73 4.1 39.3
17:30 1018 30.06 847 25.01 8.5 47.3 73 4 39.2
17:35 1018 30.06 848 25.04 8.9 48 73 4.4 39.9
17:40 1018 30.06 848 25.04 8.8 47.9 72 4 39.2
17:45 1018 30.06 848 25.04 9 48.1 72 4.3 39.7
17:50 1018 30.06 848 25.04 9.1 48.4 69 3.8 38.9
17:55 1018 30.06 848 25.04 9 48.2 72 4.2 39.5
18:00 1018 30.06 848 25.04 8.9 48 72 4.1 39.4
18:05 1018 30.06 848 25.04 8.7 47.6 74 4.4 40
18:10 1018 30.06 848 25.04 8.5 47.2 73 4 39.1
18:15 1019 30.09 848 25.04 8.6 47.4 73 3.9 39.1
18:20 1019 30.09 848 25.04 8.3 46.9 73 3.7 38.6
18:25 1019 30.09 848 25.04 8.4 47.2 71 3.5 38.4
18:30 1019 30.09 848 25.04 8.5 47.2 72 3.7 38.6
18:35 1019 30.09 848 25.04 8.8 47.9 70 3.6 38.5
18:40 1019 30.09 848 25.04 8.6 47.5 71 3.6 38.5
18:45 1019 30.09 848 25.04 8.5 47.2 71 3.5 38.4
18:50 1019 30.09 848 25.04 8.4 47.2 72 3.7 38.6
18:55 1019 30.09 848 25.04 8.5 47.2 72 3.7 38.7
19:00 1019 30.09 848 25.04 8.6 47.4 69 3.2 37.7
19:05 1019 30.09 848 25.04 8.7 47.6 68 3.1 37.6
19:10 1019 30.09 848 25.04 8.7 47.6 69 3.3 38
19:15 1019 30.09 848 25.04 8.5 47.3 69 3.2 37.8
19:20 1019 30.09 848 25.04 8.4 47.1 70 3.2 37.8
19:25 1019 30.09 848 25.04 8.3 47 71 3.4 38.1
19:30 1019 30.09 848 25.04 8.2 46.8 71 3.3 38
19:35 1019 30.09 848 25.04 8.1 46.7 73 3.6 38.4
19:40 1019 30.09 848 25.04 8.1 46.5 73 3.6 38.5
19:45 1019 30.09 848 25.04 8 46.4 75 3.9 39
19:50 1019 30.09 848 25.04 7.7 45.8 77 3.8 38.9
19:55 1019 30.09 848 25.04 7.4 45.4 77 3.6 38.5
20:00 1019 30.09 848 25.04 7.2 45 76 3.4 38.1
20:05 1019 30.09 848 25.04 7 44.6 77 3.3 38
20:10 1019 30.09 848 25.04 6.8 44.3 79 3.4 38.1
20:15 1019 30.09 848 25.04 6.8 44.2 79 3.4 38.1
20:20 1019 30.09 848 25.04 6.7 44 79 3.3 38
20:25 1019 30.09 849 25.07 6.6 43.8 79 3.3 37.9
20:30 1019 30.09 849 25.07 6.5 43.7 79 3.2 37.7
20:35 1019 30.09 849 25.07 6.4 43.5 80 3.3 37.9
20:40 1019 30.09 849 25.07 6.3 43.4 80 3.1 37.6
20:45 1019 30.09 849 25.07 6.4 43.5 80 3.2 37.7
20:50 1020 30.12 849 25.07 6.2 43.2 81 3.2 37.7
20:55 1020 30.12 849 25.07 6.2 43.1 81 3.1 37.6
21:00 1020 30.12 849 25.07 6.2 43.1 80 3.1 37.5
21:05 1020 30.12 849 25.07 6.2 43.2 80 3 37.4
21:10 1020 30.12 849 25.07 6.1 43 80 3 37.3
21:15 1020 30.12 849 25.07 6 42.9 80 2.9 37.2
21:20 1020 30.12 849 25.07 6 42.9 80 2.9 37.2
21:25 1020 30.12 849 25.07 6 42.8 80 2.8 37.1
21:30 1020 30.12 849 25.07 6 42.9 80 2.9 37.2
21:35 1020 30.12 849 25.07 6 42.8 81 2.9 37.3
21:40 1020 30.12 849 25.07 5.9 42.6 81 2.9 37.3
21:45 1020 30.12 849 25.07 5.8 42.4 82 3 37.4
21:50 1020 30.12 849 25.07 5.8 42.4 82 3 37.4
21:55 1020 30.12 849 25.07 5.8 42.5 82 3 37.5
22:00 1020 30.12 849 25.07 5.8 42.5 82 3.1 37.5
22:05 1020 30.12 849 25.07 5.8 42.5 83 3.1 37.6
22:10 1020 30.12 849 25.07 5.8 42.4 82 3 37.5
22:15 1020 30.12 850 25.1 5.8 42.5 82 3.1 37.5
22:20 1020 30.12 850 25.1 5.8 42.4 84 3.2 37.8
22:25 1020 30.12 850 25.1 5.7 42.3 84 3.2 37.8
22:30 1020 30.12 850 25.1 5.7 42.3 84 3.2 37.8
22:35 1020 30.12 850 25.1 5.8 42.4 84 3.2 37.8
22:40 1020 30.12 850 25.1 5.7 42.3 84 3.2 37.8
22:45 1020 30.12 850 25.1 5.6 42.2 84 3.2 37.7
22:50 1020 30.12 850 25.1 5.6 42 84 3.1 37.6
22:55 1020 30.12 850 25.1 5.5 41.9 84 3 37.4
23:00 1021 30.15 850 25.1 5.5 42 83 3 37.3
23:05 1021 30.15 850 25.1 5.5 42 84 3 37.5
23:10 1021 30.15 850 25.1 5.4 41.7 84 2.9 37.3
23:15 1021 30.15 850 25.1 5.4 41.7 84 3 37.3
23:20 1021 30.15 850 25.1 5.3 41.5 84 2.9 37.2
23:25 1021 30.15 850 25.1 5.3 41.6 84 2.8 37.1
23:30 1021 30.15 850 25.1 5.3 41.5 85 2.9 37.3
23:35 1021 30.15 850 25.1 5.1 41.2 86 2.9 37.2
23:40 1021 30.15 850 25.1 5.1 41.2 86 2.9 37.2
23:45 1021 30.15 850 25.1 5 41.1 86 2.9 37.2
23:50 1021 30.15 850 25.1 5.1 41.2 86 2.9 37.2
23:55 1021 30.15 850 25.1 5.1 41.2 85 2.9 37.2
24:00 1021 30.15 850 25.1 5.1 41.1 85 2.8 37